Time;durP1;ratioP1;P1;durP2;ratioP2;P2;SDS_P1;SDS_P2;PMS_P1;PMS_P2;Temp;Humidity;BMP_temperature;BMP_pressure;BME280_temperature;BME280_humidity;BME280_pressure;Samples;Min_cycle;Max_cycle;Signal;HPM_P1;HPM_P2
2022/05/02 00:01:02;;;;;;;9.75;7.03;;;17.70;99.90;;;;;;5007192;28;20053;-76
2022/05/02 00:03:29;;;;;;;11.98;7.32;;;17.60;99.90;;;;;;5019910;28;20045;-75
2022/05/02 00:05:56;;;;;;;9.10;7.28;;;17.60;99.90;;;;;;5008625;28;20041;-74
2022/05/02 00:08:23;;;;;;;9.52;6.82;;;17.50;99.90;;;;;;5000981;28;20041;-74
2022/05/02 00:10:49;;;;;;;8.82;6.53;;;17.50;99.90;;;;;;4996727;28;20041;-75
2022/05/02 00:13:15;;;;;;;10.40;7.00;;;17.50;99.90;;;;;;5016298;28;20030;-75
2022/05/02 00:15:41;;;;;;;9.13;6.93;;;17.50;99.90;;;;;;5023900;28;20033;-75
2022/05/02 00:18:08;;;;;;;11.38;6.60;;;17.60;99.90;;;;;;5008956;28;20057;-74
2022/05/02 00:20:37;;;;;;;10.18;7.15;;;17.60;99.90;;;;;;5006573;28;20155;-75
2022/05/02 00:23:10;;;;;;;14.82;8.45;;;17.50;99.90;;;;;;5014101;28;20398;-74
2022/05/02 00:25:36;;;;;;;13.93;7.38;;;17.60;99.90;;;;;;5009409;28;20041;-74
2022/05/02 00:28:03;;;;;;;9.75;7.10;;;17.60;99.90;;;;;;5023515;28;20119;-74
2022/05/02 00:30:30;;;;;;;10.52;7.85;;;17.60;99.90;;;;;;5002918;28;20796;-74
2022/05/02 00:32:57;;;;;;;12.25;7.43;;;17.60;99.90;;;;;;5023653;28;20057;-75
2022/05/02 00:35:24;;;;;;;11.63;7.30;;;17.70;99.90;;;;;;5021634;28;20552;-75
2022/05/02 00:37:50;;;;;;;10.70;7.15;;;17.80;99.90;;;;;;5023817;28;20424;-74
2022/05/02 00:40:18;;;;;;;12.38;7.07;;;17.80;99.90;;;;;;5013157;28;20046;-74
2022/05/02 00:42:45;;;;;;;9.95;6.63;;;17.80;99.90;;;;;;5007072;28;20123;-75
2022/05/02 00:45:14;;;;;;;10.10;6.10;;;17.80;99.90;;;;;;5005425;28;20073;-74
2022/05/02 00:47:41;;;;;;;11.57;6.32;;;17.80;99.90;;;;;;5021483;28;20045;-74
2022/05/02 00:50:09;;;;;;;9.25;6.30;;;17.80;99.90;;;;;;5019242;28;20052;-73
2022/05/02 00:52:36;;;;;;;8.93;5.80;;;17.70;99.90;;;;;;5002580;28;20327;-73
2022/05/02 00:55:03;;;;;;;9.60;5.93;;;17.80;99.90;;;;;;5006280;28;20886;-73
2022/05/02 00:57:31;;;;;;;7.82;5.85;;;17.70;99.90;;;;;;5002427;28;20033;-74
2022/05/02 00:59:58;;;;;;;11.13;6.18;;;17.70;99.90;;;;;;5003487;28;20041;-74
2022/05/02 01:02:24;;;;;;;10.75;5.97;;;17.80;99.90;;;;;;5022695;28;20117;-75
2022/05/02 01:04:51;;;;;;;9.88;5.78;;;17.80;99.90;;;;;;5003056;28;20042;-75
2022/05/02 01:07:21;;;;;;;9.10;6.18;;;17.70;99.90;;;;;;5020294;28;20041;-74
2022/05/02 01:09:49;;;;;;;8.55;6.20;;;17.80;99.90;;;;;;5003606;28;20389;-74
2022/05/02 01:12:26;;;;;;;10.45;6.07;;;17.80;99.90;;;;;;5004875;28;20061;-75
2022/05/02 01:14:55;;;;;;;10.75;6.47;;;17.80;99.90;;;;;;5020005;28;20064;-74
2022/05/02 01:17:22;;;;;;;11.23;6.90;;;17.80;99.90;;;;;;5021337;28;20037;-74
2022/05/02 01:19:49;;;;;;;9.90;7.40;;;17.80;99.90;;;;;;5011900;28;20046;-75
2022/05/02 01:22:15;;;;;;;14.98;7.78;;;17.80;99.90;;;;;;5017135;28;20121;-75
2022/05/02 01:24:47;;;;;;;10.13;8.60;;;17.80;99.90;;;;;;5006901;28;20116;-74
2022/05/02 01:27:14;;;;;;;15.18;9.50;;;17.70;99.90;;;;;;5005603;28;20042;-73
2022/05/02 01:29:42;;;;;;;13.50;9.60;;;17.70;99.90;;;;;;5021217;28;20101;-74
2022/05/02 01:32:13;;;;;;;14.23;9.57;;;17.70;99.90;;;;;;5019286;28;20046;-74
2022/05/02 01:34:42;;;;;;;12.30;9.32;;;17.70;99.90;;;;;;5020696;28;20103;-74
2022/05/02 01:37:11;;;;;;;13.35;9.15;;;17.70;99.90;;;;;;5000612;28;20066;-75
2022/05/02 01:39:38;;;;;;;14.75;9.80;;;17.70;99.90;;;;;;5018493;28;20072;-75
2022/05/02 01:42:07;;;;;;;15.85;9.85;;;17.60;99.90;;;;;;4970323;28;20591;-74
2022/05/02 01:44:34;;;;;;;11.35;9.07;;;17.60;99.90;;;;;;5012480;28;20456;-74
2022/05/02 01:47:00;;;;;;;17.48;11.43;;;17.50;99.90;;;;;;5000833;28;20551;-74
2022/05/02 01:49:26;;;;;;;19.13;13.27;;;17.50;99.90;;;;;;4982726;28;20033;-75
2022/05/02 01:51:54;;;;;;;14.90;11.60;;;17.50;99.90;;;;;;5021517;28;20046;-73
2022/05/02 01:54:20;;;;;;;20.63;13.25;;;17.50;99.90;;;;;;5004000;28;20030;-73
2022/05/02 01:56:46;;;;;;;19.02;13.10;;;17.50;99.90;;;;;;5022099;28;20124;-73
2022/05/02 01:59:12;;;;;;;18.38;14.95;;;17.40;99.90;;;;;;5018593;28;20462;-75
2022/05/02 02:01:38;;;;;;;19.08;13.60;;;17.40;99.90;;;;;;5025272;28;20033;-74
2022/05/02 02:06:50;;;;;;;15.57;12.82;;;17.30;99.90;;;;;;5015946;28;20049;-73
2022/05/02 02:09:16;;;;;;;14.20;11.25;;;17.30;99.90;;;;;;5014683;28;20066;-74
2022/05/02 02:11:43;;;;;;;16.45;11.65;;;17.20;99.90;;;;;;4999827;28;20053;-75
2022/05/02 02:14:09;;;;;;;14.40;10.07;;;17.30;99.90;;;;;;5022849;28;20033;-74
2022/05/02 02:16:35;;;;;;;12.63;8.88;;;17.30;99.90;;;;;;5023905;28;20104;-74
2022/05/02 02:19:01;;;;;;;12.82;10.68;;;17.30;99.90;;;;;;5021612;28;20092;-73
2022/05/02 02:21:27;;;;;;;17.00;10.93;;;17.30;99.90;;;;;;5006601;28;20092;-73
2022/05/02 02:23:53;;;;;;;16.75;11.48;;;17.30;99.90;;;;;;5022327;28;20067;-74
2022/05/02 02:26:19;;;;;;;17.52;12.20;;;17.30;99.90;;;;;;5013907;28;20053;-73
2022/05/02 02:28:45;;;;;;;14.02;10.90;;;17.30;99.90;;;;;;5014734;28;20041;-74
2022/05/02 02:31:11;;;;;;;14.68;9.98;;;17.30;99.90;;;;;;5009026;28;20111;-74
2022/05/02 02:33:39;;;;;;;11.88;8.57;;;17.40;99.90;;;;;;5004346;28;20559;-73
2022/05/02 02:36:06;;;;;;;10.13;7.38;;;17.30;99.90;;;;;;5022046;28;20046;-75
2022/05/02 02:38:32;;;;;;;10.20;6.80;;;17.30;99.90;;;;;;5022041;28;20206;-74
2022/05/02 02:40:58;;;;;;;9.35;6.53;;;17.30;99.90;;;;;;5004237;28;20375;-74
2022/05/02 02:43:27;;;;;;;8.82;5.55;;;17.30;99.90;;;;;;5010339;28;20089;-74
2022/05/02 02:45:53;;;;;;;6.10;5.32;;;17.30;99.90;;;;;;5026691;28;20412;-74
2022/05/02 02:48:19;;;;;;;11.85;5.85;;;17.30;99.90;;;;;;5020820;28;20038;-73
2022/05/02 02:50:45;;;;;;;8.45;5.30;;;17.30;99.90;;;;;;5023269;28;20374;-74
2022/05/02 02:53:11;;;;;;;11.10;6.05;;;17.30;99.90;;;;;;5006453;28;20038;-75
2022/05/02 02:55:37;;;;;;;11.68;8.02;;;17.40;99.90;;;;;;5005025;28;20030;-74
2022/05/02 02:58:04;;;;;;;11.48;8.82;;;17.40;99.90;;;;;;5005647;28;20563;-74
2022/05/02 03:00:30;;;;;;;13.13;8.68;;;17.40;99.90;;;;;;5025528;28;20030;-73
2022/05/02 03:02:56;;;;;;;11.90;8.38;;;17.40;99.90;;;;;;5022965;28;20507;-74
2022/05/02 03:08:09;;;;;;;14.63;8.88;;;17.40;99.90;;;;;;5020952;28;20045;-73
2022/05/02 03:10:36;;;;;;;13.98;10.07;;;17.40;99.90;;;;;;5010167;28;20067;-74
2022/05/02 03:13:02;;;;;;;16.15;10.32;;;17.40;99.90;;;;;;5025437;28;20037;-73
2022/05/02 03:15:28;;;;;;;14.15;11.32;;;17.40;99.90;;;;;;5000191;28;20061;-73
2022/05/02 03:17:53;;;;;;;14.90;11.82;;;17.30;99.90;;;;;;5024724;28;20122;-74
2022/05/02 03:20:20;;;;;;;15.73;10.98;;;17.20;99.90;;;;;;5003360;28;20034;-73
2022/05/02 03:22:48;;;;;;;15.05;11.32;;;17.10;99.90;;;;;;5007897;28;20176;-74
2022/05/02 03:25:14;;;;;;;15.75;11.18;;;17.10;99.90;;;;;;4994827;28;20274;-75
2022/05/02 03:27:40;;;;;;;14.88;10.93;;;17.00;99.90;;;;;;5018642;28;20048;-74
2022/05/02 03:30:06;;;;;;;13.40;9.68;;;17.00;99.90;;;;;;5011531;28;20038;-74
2022/05/02 03:32:32;;;;;;;10.57;9.07;;;17.10;99.90;;;;;;5028074;28;20078;-73
2022/05/02 03:34:59;;;;;;;14.20;8.55;;;17.10;99.90;;;;;;5009629;28;20128;-73
2022/05/02 03:37:25;;;;;;;11.18;7.70;;;17.10;99.90;;;;;;4994302;28;20042;-73
2022/05/02 03:39:50;;;;;;;13.20;7.40;;;17.10;99.90;;;;;;5004967;28;20358;-73
2022/05/02 03:42:16;;;;;;;10.88;6.95;;;17.10;99.90;;;;;;5002464;28;20072;-73
2022/05/02 03:44:43;;;;;;;9.25;7.22;;;17.10;99.90;;;;;;5004973;28;20141;-74
2022/05/02 03:47:10;;;;;;;12.10;7.32;;;17.10;99.90;;;;;;5011136;28;20044;-73
2022/05/02 03:49:36;;;;;;;11.30;6.80;;;17.00;99.90;;;;;;4997349;28;20053;-73
2022/05/02 03:52:05;;;;;;;8.70;6.45;;;17.00;99.90;;;;;;4991302;28;20049;-73
2022/05/02 03:54:30;;;;;;;9.63;6.88;;;16.90;99.90;;;;;;5025146;28;20049;-75
2022/05/02 03:56:57;;;;;;;10.68;6.80;;;16.90;99.90;;;;;;5021633;28;20065;-74
2022/05/02 03:59:23;;;;;;;10.27;6.70;;;16.80;99.90;;;;;;5011475;28;20140;-74
2022/05/02 04:01:49;;;;;;;9.13;7.05;;;16.80;99.90;;;;;;4985901;28;20069;-74
2022/05/02 04:04:15;;;;;;;11.18;7.97;;;16.70;99.90;;;;;;5023761;28;20056;-73
2022/05/02 04:06:40;;;;;;;13.15;7.47;;;16.70;99.90;;;;;;5010562;28;20128;-74
2022/05/02 04:09:06;;;;;;;12.73;7.97;;;16.60;99.90;;;;;;5010797;28;20447;-73
2022/05/02 04:11:32;;;;;;;10.75;7.53;;;16.50;99.90;;;;;;5016951;28;20172;-72
2022/05/02 04:13:58;;;;;;;10.32;7.75;;;16.50;99.90;;;;;;5021033;28;20034;-74
2022/05/02 04:16:24;;;;;;;15.73;7.80;;;16.50;99.90;;;;;;5021498;28;20096;-73
2022/05/02 04:18:49;;;;;;;12.63;7.65;;;16.40;99.90;;;;;;5007294;28;20038;-72
2022/05/02 04:21:16;;;;;;;9.00;7.30;;;16.40;99.90;;;;;;4991373;28;20474;-73
2022/05/02 04:23:42;;;;;;;10.05;7.28;;;16.30;99.90;;;;;;5007578;28;20046;-73
2022/05/02 04:26:08;;;;;;;10.18;6.80;;;16.40;99.90;;;;;;5021782;28;20034;-74
2022/05/02 04:28:34;;;;;;;8.75;6.82;;;16.40;99.90;;;;;;5009738;28;20041;-74
2022/05/02 04:31:01;;;;;;;11.00;7.28;;;16.40;99.90;;;;;;5024092;28;20044;-73
2022/05/02 04:33:27;;;;;;;10.90;7.38;;;16.50;99.90;;;;;;5004759;28;20057;-73
2022/05/02 04:35:53;;;;;;;9.40;7.20;;;16.50;99.90;;;;;;4982656;28;20049;-73
2022/05/02 04:38:19;;;;;;;8.77;7.18;;;16.50;99.90;;;;;;5018966;28;20034;-73
2022/05/02 04:40:46;;;;;;;10.60;7.25;;;16.40;99.90;;;;;;5005050;28;20040;-75
2022/05/02 04:43:13;;;;;;;9.55;7.22;;;16.40;99.90;;;;;;5009381;28;20045;-73
2022/05/02 04:45:41;;;;;;;11.85;7.10;;;16.40;99.90;;;;;;5014232;28;20038;-75
2022/05/02 04:48:09;;;;;;;14.50;7.78;;;16.40;99.90;;;;;;5000287;28;20037;-75
2022/05/02 04:50:35;;;;;;;11.27;7.72;;;16.50;99.90;;;;;;5024550;28;20038;-74
2022/05/02 04:53:01;;;;;;;9.55;6.88;;;16.60;99.90;;;;;;5004395;28;20484;-74
2022/05/02 04:55:27;;;;;;;8.52;6.80;;;16.50;99.90;;;;;;5023811;28;20039;-73
2022/05/02 04:57:53;;;;;;;9.30;6.93;;;16.60;99.90;;;;;;5019169;28;20046;-74
2022/05/02 05:00:19;;;;;;;13.50;7.20;;;16.60;99.90;;;;;;5021175;28;20141;-74
2022/05/02 05:02:45;;;;;;;9.35;7.13;;;16.60;99.90;;;;;;5001505;28;20099;-74
2022/05/02 05:05:11;;;;;;;9.75;6.97;;;16.60;99.90;;;;;;5003441;28;20061;-75
2022/05/02 05:07:37;;;;;;;10.20;7.25;;;16.70;99.90;;;;;;5015990;28;20077;-74
2022/05/02 05:10:09;;;;;;;9.52;7.18;;;16.70;99.90;;;;;;5022643;28;20053;-74
2022/05/02 05:12:58;;;;;;;11.65;6.85;;;16.70;99.90;;;;;;5021659;28;20046;-74
2022/05/02 05:18:56;;;;;;;8.20;5.57;;;16.80;99.90;;;;;;5011564;28;20036;-73
2022/05/02 05:21:39;;;;;;;8.77;5.78;;;16.80;99.90;;;;;;5005157;28;20111;-74
2022/05/02 05:24:36;;;;;;;8.35;5.90;;;16.90;99.90;;;;;;5007453;28;20384;-75
2022/05/02 05:27:24;;;;;;;9.82;5.90;;;16.90;99.90;;;;;;5005989;28;20025;-77
2022/05/02 05:30:00;;;;;;;8.38;6.60;;;16.90;99.90;;;;;;5001222;28;20040;-75
2022/05/02 05:32:57;;;;;;;9.50;7.15;;;16.80;99.90;;;;;;5017445;28;20045;-73
2022/05/02 05:35:40;;;;;;;10.02;7.32;;;16.90;99.90;;;;;;5005770;28;20041;-73
2022/05/02 05:38:09;;;;;;;;;;;16.80;99.90;;;;;;5016051;28;20054;-74
2022/05/02 05:40:42;;;;;;;10.20;7.28;;;16.90;99.90;;;;;;5007789;28;20008;-76
2022/05/02 05:43:13;;;;;;;10.00;8.13;;;17.00;99.90;;;;;;5004909;28;20046;-74
2022/05/02 05:45:48;;;;;;;10.02;7.82;;;17.00;99.90;;;;;;5016603;28;20040;-74
2022/05/02 05:48:30;;;;;;;8.60;7.05;;;17.10;99.90;;;;;;5019816;28;20499;-75
2022/05/02 05:51:09;;;;;;;;;;;17.10;99.90;;;;;;4985297;28;20048;-75
2022/05/02 05:54:00;;;;;;;8.68;6.35;;;17.10;99.90;;;;;;5023843;28;19959;-74
2022/05/02 05:56:55;;;;;;;10.82;7.00;;;17.20;99.90;;;;;;4981906;28;20038;-74
2022/05/02 05:59:47;;;;;;;9.70;6.43;;;17.30;99.90;;;;;;5017502;28;20076;-74
2022/05/02 06:02:15;;;;;;;10.27;6.95;;;17.30;99.90;;;;;;5018678;28;20043;-72
2022/05/02 06:04:43;;;;;;;10.07;5.78;;;17.30;99.90;;;;;;5009654;28;20124;-73
2022/05/02 06:07:12;;;;;;;9.18;6.15;;;17.40;99.90;;;;;;4986406;28;20046;-73
2022/05/02 06:09:42;;;;;;;10.88;6.43;;;17.40;99.90;;;;;;5023952;28;20049;-74
2022/05/02 06:12:13;;;;;;;9.98;6.35;;;17.50;99.90;;;;;;5018533;28;20100;-73
2022/05/02 06:20:16;;;;;;;7.72;5.32;;;17.80;99.90;;;;;;5015036;28;20385;-74
2022/05/02 06:22:47;;;;;;;7.63;5.10;;;17.80;99.90;;;;;;5021532;28;20043;-74
2022/05/02 06:25:14;;;;;;;8.40;5.70;;;17.90;99.90;;;;;;5020812;28;20539;-74
2022/05/02 06:27:43;;;;;;;8.43;5.22;;;17.90;99.90;;;;;;5009649;28;20496;-73
2022/05/02 06:30:10;;;;;;;10.35;6.13;;;17.90;99.90;;;;;;4999179;28;20129;-73
2022/05/02 06:32:44;;;;;;;9.98;6.15;;;17.90;99.90;;;;;;5024066;28;20053;-73
2022/05/02 06:35:10;;;;;;;10.95;6.03;;;18.00;99.90;;;;;;5006769;28;20108;-74
2022/05/02 06:37:50;;;;;;;9.15;6.15;;;18.00;99.90;;;;;;4981998;28;20130;-73
2022/05/02 06:40:31;;;;;;;9.38;5.60;;;18.10;99.90;;;;;;5025224;28;20125;-74
2022/05/02 06:43:09;;;;;;;9.07;5.55;;;18.20;99.90;;;;;;5027724;28;20049;-74
2022/05/02 06:46:07;;;;;;;10.05;5.63;;;18.20;99.90;;;;;;5024449;28;20122;-74
2022/05/02 06:48:55;;;;;;;10.00;6.32;;;18.20;99.90;;;;;;5006087;28;20041;-73
2022/05/02 06:51:35;;;;;;;7.65;5.50;;;18.20;99.90;;;;;;5016337;28;20037;-74
2022/05/02 06:54:35;;;;;;;10.55;5.95;;;18.20;99.90;;;;;;5008420;28;20029;-73
2022/05/02 06:57:35;;;;;;;8.25;5.25;;;18.20;99.90;;;;;;4985775;28;20034;-76
2022/05/02 07:00:06;;;;;;;13.75;6.15;;;18.20;99.90;;;;;;4993452;28;20048;-74
2022/05/02 07:02:57;;;;;;;7.83;5.67;;;18.20;99.90;;;;;;5004160;28;20614;-73
2022/05/02 07:05:27;;;;;;;15.48;6.40;;;18.30;99.90;;;;;;5014838;28;20038;-73
2022/05/02 07:08:06;;;;;;;13.25;6.38;;;18.40;99.90;;;;;;5004396;28;20041;-73
2022/05/02 07:10:34;;;;;;;20.33;7.07;;;18.40;99.90;;;;;;5004383;28;20101;-73
2022/05/02 07:13:29;;;;;;;14.55;6.80;;;18.40;99.90;;;;;;5005117;28;20060;-74
2022/05/02 07:16:14;;;;;;;11.38;6.30;;;18.40;99.90;;;;;;5019709;28;20072;-75
2022/05/02 07:18:53;;;;;;;14.07;6.40;;;18.40;99.90;;;;;;5022312;28;20040;-74
2022/05/02 07:21:46;;;;;;;12.13;6.85;;;18.40;99.90;;;;;;5002342;28;20557;-74
2022/05/02 07:24:21;;;;;;;10.90;7.15;;;18.60;99.90;;;;;;5023171;28;20400;-74
2022/05/02 07:27:14;;;;;;;9.05;6.43;;;18.80;99.90;;;;;;5002023;28;20062;-75
2022/05/02 07:29:44;;;;;;;10.88;7.93;;;19.00;99.90;;;;;;4983569;28;20069;-76
2022/05/02 07:32:14;;;;;;;23.67;17.10;;;19.00;99.90;;;;;;5012766;28;20479;-74
2022/05/02 07:34:41;;;;;;;8.98;6.40;;;19.20;99.90;;;;;;5007024;28;20399;-74
2022/05/02 07:37:12;;;;;;;11.13;6.20;;;19.30;99.90;;;;;;5028677;28;20562;-74
2022/05/02 07:39:41;;;;;;;9.75;6.03;;;19.40;99.90;;;;;;5006139;28;20073;-73
2022/05/02 07:42:10;;;;;;;10.52;6.57;;;19.50;99.90;;;;;;4995414;28;20041;-74
2022/05/02 07:44:38;;;;;;;11.55;6.00;;;19.40;99.90;;;;;;5002642;28;20125;-73
2022/05/02 07:47:06;;;;;;;13.05;6.68;;;19.50;99.90;;;;;;5017438;28;20033;-73
2022/05/02 07:49:34;;;;;;;10.73;6.00;;;19.50;99.90;;;;;;5018411;28;20041;-74
2022/05/02 07:52:02;;;;;;;10.68;6.47;;;19.40;99.90;;;;;;5009493;28;20076;-74
2022/05/02 07:54:35;;;;;;;10.63;6.45;;;19.40;99.90;;;;;;5002209;28;20026;-73
2022/05/02 07:57:04;;;;;;;10.70;6.00;;;19.40;99.90;;;;;;5021979;28;20049;-73
2022/05/02 07:59:35;;;;;;;10.85;5.93;;;19.40;99.90;;;;;;4990504;28;20112;-74
2022/05/02 08:02:04;;;;;;;9.80;5.40;;;19.50;99.90;;;;;;5012920;28;20421;-72
2022/05/02 08:04:30;;;;;;;8.88;5.50;;;19.60;99.90;;;;;;5009302;28;20045;-73
2022/05/02 08:07:11;;;;;;;7.22;4.97;;;19.70;99.90;;;;;;5015006;28;20045;-73
2022/05/02 08:10:16;;;;;;;13.40;5.57;;;19.80;99.90;;;;;;4999315;28;20045;-73
2022/05/02 08:13:03;;;;;;;10.70;5.40;;;20.00;99.90;;;;;;4996803;28;20099;-73
2022/05/02 08:15:35;;;;;;;9.60;5.25;;;20.20;99.90;;;;;;4994490;28;20044;-72
2022/05/02 08:18:13;;;;;;;10.18;4.78;;;20.30;99.90;;;;;;4986986;28;20052;-72
2022/05/02 08:20:56;;;;;;;7.15;4.30;;;20.40;99.90;;;;;;5007711;28;20091;-74
2022/05/02 08:30:09;;;;;;;10.00;4.50;;;20.90;99.70;;;;;;4938465;28;20039;-73
2022/05/02 08:32:53;;;;;;;7.32;4.63;;;21.00;99.30;;;;;;5005379;28;20052;-73
2022/05/02 08:35:41;;;;;;;8.30;4.70;;;21.00;99.20;;;;;;5013700;28;20034;-73
2022/05/02 08:38:25;;;;;;;7.97;4.82;;;21.20;99.20;;;;;;5008904;28;20044;-73
2022/05/02 08:41:18;;;;;;;10.05;4.90;;;21.20;99.20;;;;;;5014382;28;20075;-73
2022/05/02 08:44:08;;;;;;;8.30;4.88;;;21.20;99.30;;;;;;5011158;28;20045;-73
2022/05/02 08:47:01;;;;;;;10.02;5.10;;;21.70;98.90;;;;;;4992740;28;20124;-73
2022/05/02 08:49:59;;;;;;;8.60;5.32;;;22.40;98.20;;;;;;4969557;28;20045;-73
2022/05/02 08:52:52;;;;;;;11.18;6.05;;;23.70;97.00;;;;;;5009210;28;20060;-73
2022/05/02 08:55:27;;;;;;;13.68;5.05;;;24.40;96.00;;;;;;5008893;28;20092;-76
2022/05/02 08:57:56;;;;;;;12.57;4.80;;;24.10;96.00;;;;;;5012488;28;20037;-75
2022/05/02 09:00:56;;;;;;;11.35;4.78;;;23.40;96.00;;;;;;4995575;28;20041;-75
2022/05/02 09:03:49;;;;;;;9.68;4.03;;;23.50;95.80;;;;;;5010798;28;20052;-74
2022/05/02 09:06:53;;;;;;;9.15;3.95;;;24.10;95.10;;;;;;5011295;28;20041;-75
2022/05/02 09:09:33;;;;;;;6.72;3.80;;;24.00;94.40;;;;;;4980248;28;20043;-75
2022/05/02 09:12:18;;;;;;;10.32;3.97;;;23.70;94.10;;;;;;5011765;28;20050;-73
2022/05/02 09:15:03;;;;;;;12.15;3.97;;;23.50;94.30;;;;;;4989646;28;20033;-74
2022/05/02 09:18:06;;;;;;;6.03;3.30;;;23.70;94.00;;;;;;4993537;28;20521;-75
2022/05/02 09:20:48;;;;;;;7.85;3.40;;;24.20;93.50;;;;;;5006343;28;20611;-74
2022/05/02 09:23:43;;;;;;;7.73;3.37;;;24.10;93.10;;;;;;5017996;28;20045;-75
2022/05/02 09:26:30;;;;;;;8.43;3.55;;;23.80;93.40;;;;;;5003163;28;20288;-74
2022/05/02 09:29:14;;;;;;;6.72;3.38;;;24.10;93.50;;;;;;4957135;28;20041;-74
2022/05/02 09:32:23;;;;;;;8.35;3.88;;;24.50;93.30;;;;;;4965009;28;20053;-77
2022/05/02 09:34:58;;;;;;;8.32;3.60;;;24.90;92.70;;;;;;4958812;28;20049;-74
2022/05/02 09:37:55;;;;;;;5.40;2.90;;;24.40;92.80;;;;;;4999025;28;20048;-73
2022/05/02 09:40:34;;;;;;;5.25;2.60;;;24.00;92.90;;;;;;5008153;28;20393;-73
2022/05/02 09:49:58;;;;;;;4.78;2.80;;;23.40;93.00;;;;;;5007234;28;20175;-76
2022/05/02 09:52:50;;;;;;;6.43;2.92;;;23.40;93.60;;;;;;4990690;28;20052;-76
2022/05/02 09:58:36;;;;;;;7.07;2.90;;;22.80;93.50;;;;;;5008457;28;21166;-76
2022/05/02 10:01:20;;;;;;;4.80;2.72;;;22.70;94.10;;;;;;4998876;28;20068;-76
2022/05/02 10:04:24;;;;;;;7.13;3.05;;;23.00;93.90;;;;;;4990037;28;20793;-76
2022/05/02 10:07:05;;;;;;;6.53;3.15;;;23.20;93.60;;;;;;5018681;28;20038;-76
2022/05/02 10:10:00;;;;;;;5.55;3.25;;;23.00;93.30;;;;;;5012097;28;20496;-76
2022/05/02 10:12:48;;;;;;;8.32;3.10;;;23.10;93.70;;;;;;5009617;28;20041;-77
2022/05/02 10:15:52;;;;;;;7.32;2.88;;;23.30;93.90;;;;;;5008370;28;20119;-78
2022/05/02 10:18:23;;;;;;;4.13;2.85;;;23.20;93.30;;;;;;5015154;28;20064;-76
2022/05/02 10:21:01;;;;;;;9.07;2.85;;;22.70;93.90;;;;;;4992024;28;20090;-76
2022/05/02 10:23:46;;;;;;;8.35;2.63;;;22.50;94.30;;;;;;4988278;28;20037;-76
2022/05/02 10:26:44;;;;;;;6.57;3.05;;;21.90;94.30;;;;;;5012904;28;20049;-76
2022/05/02 10:29:38;;;;;;;6.07;3.42;;;21.80;95.10;;;;;;5010136;28;20583;-76
2022/05/02 10:32:08;;;;;;;5.97;3.40;;;21.90;95.20;;;;;;5010029;28;20100;-76
2022/05/02 10:34:37;;;;;;;7.82;3.13;;;21.80;95.30;;;;;;5013707;28;20100;-77
2022/05/02 10:37:07;;;;;;;9.45;3.15;;;21.90;95.10;;;;;;5011398;28;20044;-76
2022/05/02 10:39:50;;;;;;;8.88;4.00;;;21.90;95.20;;;;;;4993272;28;20076;-76
2022/05/02 10:42:20;;;;;;;5.07;3.22;;;21.80;95.60;;;;;;5010383;28;20073;-77
2022/05/02 10:45:01;;;;;;;11.82;3.70;;;21.80;95.90;;;;;;5013228;28;20136;-75
2022/05/02 10:47:38;;;;;;;7.03;3.53;;;21.90;95.60;;;;;;4993327;28;20418;-77
2022/05/02 10:50:26;;;;;;;6.70;3.22;;;21.80;95.70;;;;;;5009877;28;20040;-76
2022/05/02 10:53:20;;;;;;;7.18;3.70;;;21.50;95.80;;;;;;4991086;28;20447;-78
2022/05/02 10:56:07;;;;;;;7.25;3.33;;;21.10;96.20;;;;;;5007948;28;20484;-76
2022/05/02 10:58:34;;;;;;;7.43;3.22;;;21.00;96.10;;;;;;4993671;28;20120;-76
2022/05/02 11:01:06;;;;;;;5.53;3.40;;;21.10;95.90;;;;;;4995475;28;20153;-77
2022/05/02 11:03:46;;;;;;;;;;;21.00;96.30;;;;;;4996131;28;20051;-76
2022/05/02 11:06:25;;;;;;;4.93;3.22;;;21.20;96.40;;;;;;4993075;28;19918;-76
2022/05/02 11:08:58;;;;;;;23.98;3.83;;;21.40;96.00;;;;;;5024449;28;20037;-75
2022/05/02 11:11:46;;;;;;;47.00;6.07;;;21.50;95.90;;;;;;5022166;28;20034;-77
2022/05/02 11:14:18;;;;;;;11.35;3.42;;;21.60;95.60;;;;;;5013441;28;20396;-77
2022/05/02 11:16:44;;;;;;;49.83;6.32;;;21.90;95.30;;;;;;5016096;28;20071;-77
2022/05/02 11:22:10;;;;;;;20.10;3.90;;;22.20;94.20;;;;;;5022517;28;20052;-78
2022/05/02 11:25:06;;;;;;;48.08;5.25;;;22.60;93.70;;;;;;5015107;28;20137;-77
2022/05/02 11:27:38;;;;;;;12.00;4.75;;;23.20;93.40;;;;;;4992201;28;20049;-76
2022/05/02 11:30:11;;;;;;;8.50;3.63;;;23.50;92.00;;;;;;4994650;28;20505;-78
2022/05/02 11:32:47;;;;;;;15.98;3.95;;;23.10;91.60;;;;;;4998076;28;20079;-76
2022/05/02 11:35:22;;;;;;;10.65;3.10;;;23.20;91.40;;;;;;5015989;28;20033;-76
2022/05/02 11:38:02;;;;;;;7.68;3.00;;;23.30;90.60;;;;;;5000250;28;20049;-76
2022/05/02 11:40:35;;;;;;;9.70;3.15;;;23.20;91.30;;;;;;5013986;28;20087;-76
2022/05/02 11:43:04;;;;;;;4.97;2.90;;;23.00;90.90;;;;;;4978194;28;20054;-77
2022/05/02 11:45:45;;;;;;;6.32;3.47;;;23.10;91.20;;;;;;5014824;28;20045;-77
2022/05/02 11:48:21;;;;;;;7.77;3.10;;;22.90;91.20;;;;;;4972039;28;20529;-76
2022/05/02 11:50:48;;;;;;;5.88;2.88;;;23.30;91.60;;;;;;5017326;28;20497;-75
2022/05/02 11:53:17;;;;;;;7.95;2.95;;;23.90;91.10;;;;;;4991525;28;20046;-77
2022/05/02 11:55:46;;;;;;;5.38;2.95;;;24.00;91.10;;;;;;5018919;28;20063;-76
2022/05/02 11:58:24;;;;;;;5.30;3.20;;;24.50;91.00;;;;;;5014298;28;20042;-76
2022/05/02 12:00:57;;;;;;;6.82;4.05;;;25.10;90.50;;;;;;5014351;28;20045;-77
2022/05/02 12:03:25;;;;;;;7.10;3.10;;;25.80;90.50;;;;;;4994267;28;20131;-78
2022/05/02 12:05:55;;;;;;;7.88;3.22;;;26.10;89.00;;;;;;4999467;28;20044;-77
2022/05/02 12:08:36;;;;;;;8.90;3.47;;;26.30;89.80;;;;;;4996320;28;20049;-77
2022/05/02 12:11:10;;;;;;;6.82;3.20;;;26.40;89.30;;;;;;5015915;28;20034;-77
2022/05/02 12:13:40;;;;;;;6.30;2.78;;;26.10;89.60;;;;;;5002435;28;20034;-76
2022/05/02 12:16:15;;;;;;;9.48;2.95;;;25.50;87.80;;;;;;5017503;28;20072;-79
2022/05/02 12:18:42;;;;;;;6.07;3.20;;;25.40;89.10;;;;;;5002074;28;20148;-79
2022/05/02 12:21:14;;;;;;;8.38;3.78;;;25.50;89.70;;;;;;4998273;28;20068;-79
2022/05/02 12:23:40;;;;;;;;;;;25.70;90.00;;;;;;5028693;28;20052;-83
2022/05/02 12:26:18;;;;;;;30.83;4.80;;;25.40;90.40;;;;;;5031838;28;20004;-83
2022/05/02 12:28:48;;;;;;;13.95;3.72;;;25.30;90.70;;;;;;5026977;28;20071;-76
2022/05/02 12:31:27;;;;;;;10.07;3.17;;;25.40;90.70;;;;;;5017246;28;20206;-78
2022/05/02 12:34:06;;;;;;;6.28;3.30;;;25.40;91.10;;;;;;5020483;28;20034;-77
2022/05/02 12:36:45;;;;;;;6.72;3.28;;;25.00;91.00;;;;;;5021113;28;20382;-79
2022/05/02 12:39:29;;;;;;;5.93;3.40;;;26.00;90.50;;;;;;5021464;28;20984;-79
2022/05/02 12:42:16;;;;;;;6.57;3.20;;;26.50;90.50;;;;;;5024944;28;20119;-78
2022/05/02 12:44:46;;;;;;;7.07;3.30;;;27.50;89.10;;;;;;4978738;28;20042;-78
2022/05/02 12:47:19;;;;;;;7.30;3.10;;;26.00;90.30;;;;;;4985408;28;20061;-75
2022/05/02 12:50:04;;;;;;;5.68;3.25;;;25.40;90.50;;;;;;4985702;28;20265;-75
2022/05/02 12:52:35;;;;;;;10.20;3.67;;;24.80;91.30;;;;;;4995575;28;20172;-75
2022/05/02 12:55:01;;;;;;;6.03;3.40;;;24.00;92.00;;;;;;5018665;28;20060;-75
2022/05/02 13:00:30;;;;;;;5.97;3.78;;;22.90;93.40;;;;;;5014255;28;20061;-75
2022/05/02 13:03:04;;;;;;;8.50;4.07;;;22.90;93.20;;;;;;5014626;28;20626;-75
2022/05/02 13:05:33;;;;;;;10.18;3.70;;;22.70;93.20;;;;;;4997655;28;20061;-76
2022/05/02 13:08:12;;;;;;;10.52;3.90;;;22.70;93.40;;;;;;5011573;28;20059;-76
2022/05/02 13:10:40;;;;;;;8.95;3.75;;;22.60;93.70;;;;;;4980823;28;20060;-77
2022/05/02 13:13:11;;;;;;;7.85;3.50;;;22.20;94.00;;;;;;5013919;28;20042;-76
2022/05/02 13:15:43;;;;;;;8.20;3.63;;;22.20;94.40;;;;;;5021556;28;20041;-76
2022/05/02 13:18:14;;;;;;;8.73;4.00;;;22.30;94.40;;;;;;5017026;28;20033;-77
2022/05/02 13:20:48;;;;;;;9.18;4.18;;;22.50;94.40;;;;;;5014960;28;20035;-75
2022/05/02 13:23:14;;;;;;;20.00;4.40;;;22.10;94.80;;;;;;4996934;28;20045;-77
2022/05/02 13:25:55;;;;;;;18.15;5.00;;;21.20;96.90;;;;;;5000924;28;20037;-78
2022/05/02 13:28:54;;;;;;;9.67;5.20;;;20.90;97.90;;;;;;5008842;28;20053;-76
2022/05/02 13:31:35;;;;;;;10.73;4.75;;;20.60;98.50;;;;;;5010418;28;20045;-77
2022/05/02 13:34:05;;;;;;;11.13;4.47;;;20.50;98.30;;;;;;4969622;28;20566;-77
2022/05/02 13:36:41;;;;;;;6.97;4.70;;;20.30;98.80;;;;;;5012167;28;20039;-76
2022/05/02 13:39:13;;;;;;;8.80;4.57;;;20.20;98.70;;;;;;4997307;28;20497;-77
2022/05/02 13:41:51;;;;;;;;;;;20.50;99.70;;;;;;4994910;28;20042;-77
2022/05/02 13:44:48;;;;;;;11.60;4.70;;;21.10;99.90;;;;;;5016580;28;19936;-75
2022/05/02 13:47:15;;;;;;;9.60;4.57;;;21.30;98.10;;;;;;5015537;28;20504;-79
2022/05/02 13:50:12;;;;;;;7.95;4.13;;;21.90;97.80;;;;;;5001329;28;20551;-76
2022/05/02 13:52:50;;;;;;;13.57;3.95;;;22.30;95.90;;;;;;5015362;28;20142;-75
2022/05/02 13:55:31;;;;;;;8.52;4.07;;;22.90;95.00;;;;;;5015500;28;20041;-77